Time;durP1;ratioP1;P1;durP2;ratioP2;P2;SDS_P1;SDS_P2;PMS_P1;PMS_P2;Temp;Humidity;BMP_temperature;BMP_pressure;BME280_temperature;BME280_humidity;BME280_pressure;Samples;Min_cycle;Max_cycle;Signal;HPM_P1;HPM_P2
2022/03/17 00:00:52;;;;;;;52.73;36.83;;;8.30;99.90;;;;;;5031148;28;20905;-46
2022/03/17 00:03:19;;;;;;;47.93;35.00;;;8.40;99.90;;;;;;5031176;28;20454;-46
2022/03/17 00:05:45;;;;;;;52.43;38.17;;;7.70;99.90;;;;;;5031287;28;20492;-46
2022/03/17 00:08:12;;;;;;;47.77;34.80;;;8.10;99.90;;;;;;5031130;28;20959;-46
2022/03/17 00:10:39;;;;;;;50.13;36.97;;;8.20;99.90;;;;;;5031136;28;20449;-46
2022/03/17 00:13:07;;;;;;;46.70;34.10;;;7.90;99.90;;;;;;5031136;28;20491;-47
2022/03/17 00:15:33;;;;;;;50.80;35.30;;;8.00;99.90;;;;;;5031442;28;20438;-46
2022/03/17 00:18:00;;;;;;;48.37;35.20;;;8.10;99.90;;;;;;5035059;28;20922;-46
2022/03/17 00:20:26;;;;;;;49.23;35.47;;;8.00;99.90;;;;;;5034287;28;20467;-46
2022/03/17 00:22:53;;;;;;;53.50;35.00;;;7.90;99.90;;;;;;5034793;28;20540;-47
2022/03/17 00:25:20;;;;;;;51.40;37.83;;;8.00;99.90;;;;;;5034923;28;20430;-47
2022/03/17 00:27:46;;;;;;;46.13;34.47;;;8.10;99.90;;;;;;5034693;28;20429;-46
2022/03/17 00:30:14;;;;;;;51.77;36.43;;;8.10;99.90;;;;;;5034162;28;20439;-46
2022/03/17 00:32:41;;;;;;;50.60;35.70;;;7.80;99.90;;;;;;5034416;28;20454;-46
2022/03/17 00:38:09;;;;;;;51.40;35.93;;;8.10;99.90;;;;;;4993438;28;20441;-47
2022/03/17 00:40:37;;;;;;;56.03;37.20;;;7.30;99.90;;;;;;4993002;28;20455;-46
2022/03/17 00:43:04;;;;;;;55.30;36.23;;;7.70;99.90;;;;;;5012324;28;20490;-46
2022/03/17 00:45:32;;;;;;;53.70;37.03;;;8.00;99.90;;;;;;5034984;28;20496;-47
2022/03/17 00:47:59;;;;;;;53.23;35.67;;;8.10;99.90;;;;;;5016832;28;20428;-46
2022/03/17 00:50:26;;;;;;;53.00;37.70;;;7.70;99.90;;;;;;5034714;28;20436;-47
2022/03/17 00:52:53;;;;;;;51.47;33.97;;;7.70;99.90;;;;;;5034373;28;20454;-46
2022/03/17 00:55:20;;;;;;;49.23;36.10;;;7.90;99.90;;;;;;5034274;28;20436;-46
2022/03/17 00:57:47;;;;;;;50.07;35.77;;;7.70;99.90;;;;;;5034692;28;20405;-46
2022/03/17 01:00:15;;;;;;;56.03;37.93;;;7.80;99.90;;;;;;5033555;28;20945;-45
2022/03/17 01:02:43;;;;;;;49.70;34.80;;;7.70;99.90;;;;;;5034167;28;20856;-46
2022/03/17 01:05:11;;;;;;;56.03;37.60;;;8.00;99.90;;;;;;5034204;28;20793;-46
2022/03/17 01:07:38;;;;;;;55.50;38.57;;;7.90;99.90;;;;;;5033966;28;20857;-46
2022/03/17 01:10:05;;;;;;;57.10;38.37;;;7.70;99.90;;;;;;5033787;28;20435;-45
2022/03/17 01:12:32;;;;;;;56.07;40.67;;;7.60;99.90;;;;;;5033764;28;20477;-45
2022/03/17 01:14:59;;;;;;;52.17;36.07;;;7.70;99.90;;;;;;5033929;28;20947;-45
2022/03/17 01:17:26;;;;;;;57.97;39.07;;;7.60;99.90;;;;;;5033772;28;20440;-46
2022/03/17 01:19:54;;;;;;;47.20;35.17;;;7.80;99.90;;;;;;5033397;28;20438;-47
2022/03/17 01:22:21;;;;;;;56.40;36.70;;;8.00;99.90;;;;;;5033520;28;20488;-46
2022/03/17 01:24:49;;;;;;;59.40;39.93;;;8.00;99.90;;;;;;5033706;28;20501;-46
2022/03/17 01:27:19;;;;;;;50.27;35.43;;;7.70;99.90;;;;;;5033213;28;20892;-46
2022/03/17 01:29:46;;;;;;;56.67;38.90;;;8.00;99.90;;;;;;5033043;28;20437;-46
2022/03/17 01:32:13;;;;;;;52.17;36.63;;;7.70;99.90;;;;;;5033306;28;20460;-46
2022/03/17 01:34:40;;;;;;;53.27;38.80;;;7.30;99.90;;;;;;5033546;28;20442;-46
2022/03/17 01:37:07;;;;;;;58.30;38.00;;;7.50;99.90;;;;;;5033404;28;20438;-45
2022/03/17 01:39:34;;;;;;;54.80;38.57;;;7.20;99.90;;;;;;5033114;28;20438;-46
2022/03/17 01:42:04;;;;;;;56.70;40.27;;;7.80;99.90;;;;;;5033061;28;20509;-45
2022/03/17 01:44:30;;;;;;;56.63;39.20;;;7.50;99.90;;;;;;5033377;28;20913;-52
2022/03/17 01:49:42;;;;;;;54.03;37.57;;;7.80;99.90;;;;;;5032813;28;20514;-46
2022/03/17 01:52:10;;;;;;;56.57;39.63;;;7.50;99.90;;;;;;5033071;28;20855;-45
2022/03/17 01:54:38;;;;;;;49.93;38.20;;;7.50;99.90;;;;;;5033011;28;20484;-46
2022/03/17 01:57:06;;;;;;;50.50;37.80;;;7.50;99.90;;;;;;5015314;28;20453;-46
2022/03/17 01:59:35;;;;;;;58.67;41.10;;;7.60;99.90;;;;;;5032447;28;20945;-46
2022/03/17 02:02:03;;;;;;;57.60;39.87;;;7.50;99.90;;;;;;5032740;28;20490;-46
2022/03/17 02:04:30;;;;;;;60.33;40.77;;;7.50;99.90;;;;;;5033105;28;20980;-46
2022/03/17 02:06:56;;;;;;;59.93;41.10;;;7.40;99.90;;;;;;5033348;28;20429;-46
2022/03/17 02:09:26;;;;;;;56.73;40.87;;;7.90;99.90;;;;;;5032429;28;20413;-46
2022/03/17 02:14:47;;;;;;;51.00;37.00;;;7.10;99.90;;;;;;5032605;28;20411;-46
2022/03/17 02:17:14;;;;;;;53.60;38.27;;;7.40;99.90;;;;;;5032722;28;20423;-46
2022/03/17 02:19:42;;;;;;;54.10;40.10;;;7.20;99.90;;;;;;5032317;28;20477;-46
2022/03/17 02:22:12;;;;;;;53.47;38.57;;;7.40;99.90;;;;;;5032432;28;20485;-46
2022/03/17 02:27:26;;;;;;;55.17;40.47;;;7.10;99.90;;;;;;5032619;28;20411;-46
2022/03/17 02:29:53;;;;;;;54.23;38.80;;;7.00;99.90;;;;;;5032147;28;20413;-46
2022/03/17 02:32:20;;;;;;;58.80;41.10;;;7.30;99.90;;;;;;5032802;28;20467;-45
2022/03/17 02:34:46;;;;;;;57.73;40.03;;;7.90;99.90;;;;;;5032538;28;20407;-46
2022/03/17 02:37:13;;;;;;;53.43;39.00;;;7.40;99.90;;;;;;5014631;28;20453;-46
2022/03/17 02:39:42;;;;;;;51.47;39.17;;;7.40;99.90;;;;;;5031030;28;20463;-45
2022/03/17 02:42:10;;;;;;;51.40;39.40;;;7.60;99.90;;;;;;5032112;28;21002;-45
2022/03/17 02:44:36;;;;;;;57.73;40.47;;;7.10;99.90;;;;;;5032142;28;20448;-45
2022/03/17 02:47:03;;;;;;;57.40;39.80;;;7.60;99.90;;;;;;5032306;28;20423;-46
2022/03/17 02:49:30;;;;;;;52.17;39.50;;;7.40;99.90;;;;;;5031803;28;20442;-45
2022/03/17 02:51:57;;;;;;;59.47;42.60;;;7.50;99.90;;;;;;5032128;28;20457;-45
2022/03/17 02:54:23;;;;;;;55.53;38.97;;;7.40;99.90;;;;;;5032041;28;20433;-48
2022/03/17 02:56:51;;;;;;;54.80;39.87;;;7.50;99.90;;;;;;5032035;28;20441;-47
2022/03/17 02:59:18;;;;;;;61.43;42.60;;;7.20;99.90;;;;;;5031555;28;20448;-47
2022/03/17 03:01:44;;;;;;;53.40;39.27;;;7.40;99.90;;;;;;5014062;28;20473;-47
2022/03/17 03:04:13;;;;;;;55.97;39.70;;;7.80;99.90;;;;;;5032203;28;20819;-47
2022/03/17 03:06:40;;;;;;;60.43;40.93;;;7.70;99.90;;;;;;5031982;28;20442;-47
2022/03/17 03:09:06;;;;;;;57.00;41.40;;;7.40;99.90;;;;;;5031526;28;20953;-47
2022/03/17 03:11:33;;;;;;;52.10;39.70;;;7.20;99.90;;;;;;5031729;28;20842;-47
2022/03/17 03:14:01;;;;;;;55.40;40.93;;;6.80;99.90;;;;;;5031913;28;20513;-47
2022/03/17 03:16:28;;;;;;;61.43;40.90;;;7.40;99.90;;;;;;5032007;28;20436;-47
2022/03/17 03:18:55;;;;;;;64.60;42.43;;;7.10;99.90;;;;;;5031414;28;20441;-47
2022/03/17 03:21:21;;;;;;;65.20;41.43;;;7.20;99.90;;;;;;5031697;28;20796;-47
2022/03/17 03:23:48;;;;;;;64.17;44.77;;;7.70;99.90;;;;;;5031574;28;20456;-47
2022/03/17 03:26:15;;;;;;;58.43;41.70;;;7.40;99.90;;;;;;5031474;28;20441;-47
2022/03/17 03:28:42;;;;;;;53.43;40.50;;;7.30;99.90;;;;;;5031471;28;20503;-47
2022/03/17 03:31:10;;;;;;;61.57;41.87;;;7.10;99.90;;;;;;5031814;28;20793;-47
2022/03/17 03:33:36;;;;;;;60.23;42.93;;;7.40;99.90;;;;;;5031600;28;20805;-47
2022/03/17 03:38:47;;;;;;;57.50;42.47;;;7.40;99.90;;;;;;5031130;28;20438;-46
2022/03/17 03:41:14;;;;;;;63.57;42.80;;;7.50;99.90;;;;;;5031511;28;20447;-46
2022/03/17 03:43:41;;;;;;;62.37;42.10;;;7.20;99.90;;;;;;5031594;28;20804;-46
2022/03/17 03:46:07;;;;;;;58.80;43.80;;;7.50;99.90;;;;;;5031687;28;20800;-46
2022/03/17 03:48:35;;;;;;;57.47;41.40;;;7.30;99.90;;;;;;5031140;28;20436;-46
2022/03/17 03:51:02;;;;;;;58.90;44.10;;;7.40;99.90;;;;;;5032292;28;20434;-46
2022/03/17 03:54:12;;;;;;;65.87;44.73;;;7.10;99.90;;;;;;5035371;28;20812;-46
2022/03/17 03:56:15;;;;;;;62.43;43.47;;;7.10;99.90;;;;;;5035730;28;20445;-46
2022/03/17 03:58:41;;;;;;;54.63;40.17;;;7.20;99.90;;;;;;5035453;28;20416;-46
2022/03/17 04:01:08;;;;;;;59.70;41.33;;;7.30;99.90;;;;;;5035796;28;20415;-46
2022/03/17 04:03:36;;;;;;;59.80;44.10;;;7.30;99.90;;;;;;5017749;28;20471;-46
2022/03/17 04:06:02;;;;;;;58.47;43.37;;;6.50;99.90;;;;;;5035960;28;20800;-46
2022/03/17 04:08:29;;;;;;;58.60;43.27;;;7.10;99.90;;;;;;5035457;28;20448;-46
2022/03/17 04:10:56;;;;;;;59.40;42.90;;;7.30;99.90;;;;;;5035509;28;20436;-46
2022/03/17 04:13:22;;;;;;;57.90;43.20;;;7.10;99.90;;;;;;5035255;28;20446;-46
2022/03/17 04:15:49;;;;;;;61.83;43.40;;;7.30;99.90;;;;;;5035283;28;20436;-46
2022/03/17 04:18:16;;;;;;;61.60;45.47;;;6.90;99.90;;;;;;5035345;28;20440;-46
2022/03/17 04:20:44;;;;;;;60.37;43.60;;;6.90;99.90;;;;;;5034974;28;20502;-45
2022/03/17 04:23:11;;;;;;;60.27;44.30;;;6.70;99.90;;;;;;5035162;28;20462;-46
2022/03/17 04:25:37;;;;;;;62.03;45.40;;;6.90;99.90;;;;;;5035097;28;20414;-46
2022/03/17 04:28:05;;;;;;;60.33;43.40;;;7.20;99.90;;;;;;5035348;28;20434;-46
2022/03/17 04:30:33;;;;;;;63.17;46.10;;;6.90;99.90;;;;;;5035109;28;20850;-47
2022/03/17 04:32:59;;;;;;;59.53;44.40;;;7.10;99.90;;;;;;5035091;28;20459;-46
2022/03/17 04:35:26;;;;;;;59.63;43.73;;;7.20;99.90;;;;;;5035319;28;20431;-46
2022/03/17 04:37:54;;;;;;;62.27;45.53;;;7.40;99.90;;;;;;5035377;28;20903;-46
2022/03/17 04:40:21;;;;;;;74.10;46.73;;;6.50;99.90;;;;;;5034682;28;20515;-45
2022/03/17 04:42:48;;;;;;;65.27;45.80;;;7.10;99.90;;;;;;5034849;28;21016;-46
2022/03/17 04:45:15;;;;;;;72.60;47.87;;;7.00;99.90;;;;;;5034657;28;20440;-46
2022/03/17 04:47:41;;;;;;;59.97;45.03;;;7.20;99.90;;;;;;5034694;28;20518;-46
2022/03/17 04:50:09;;;;;;;62.40;43.53;;;7.00;99.90;;;;;;5034278;28;20451;-46
2022/03/17 04:55:21;;;;;;;67.87;48.80;;;7.00;99.90;;;;;;5034966;28;20491;-46
2022/03/17 04:57:48;;;;;;;72.33;48.73;;;7.00;99.90;;;;;;5034655;28;20423;-46
2022/03/17 05:00:15;;;;;;;64.70;46.93;;;7.10;99.90;;;;;;5034148;28;20497;-46
2022/03/17 05:02:42;;;;;;;67.97;46.33;;;6.90;99.90;;;;;;5033398;28;20559;-46
2022/03/17 05:05:08;;;;;;;65.70;48.20;;;7.10;99.90;;;;;;5034267;28;20421;-46
2022/03/17 05:07:35;;;;;;;71.00;47.00;;;7.10;99.90;;;;;;5034302;28;20410;-46
2022/03/17 05:10:02;;;;;;;68.33;47.50;;;6.80;99.90;;;;;;5033978;28;20424;-46
2022/03/17 05:12:30;;;;;;;68.10;48.63;;;7.10;99.90;;;;;;5034959;28;20443;-45
2022/03/17 05:14:57;;;;;;;69.40;48.37;;;7.20;99.90;;;;;;5035980;28;20444;-44
2022/03/17 05:17:23;;;;;;;69.23;47.00;;;6.90;99.90;;;;;;5035142;28;20416;-45
2022/03/17 05:19:50;;;;;;;69.83;49.80;;;7.20;99.90;;;;;;5034606;28;20406;-46
2022/03/17 05:22:16;;;;;;;69.10;51.40;;;6.70;99.90;;;;;;5035685;28;20821;-45
2022/03/17 05:24:43;;;;;;;72.17;50.10;;;7.00;99.90;;;;;;5035639;28;20428;-45
2022/03/17 05:27:09;;;;;;;71.30;48.33;;;6.90;99.90;;;;;;5034948;28;20922;-44
2022/03/17 05:29:37;;;;;;;73.10;49.53;;;6.90;99.90;;;;;;5033735;28;20456;-45
2022/03/17 05:32:05;;;;;;;63.53;48.10;;;7.40;99.90;;;;;;5034083;28;20463;-45
2022/03/17 05:34:32;;;;;;;68.60;50.73;;;7.00;99.90;;;;;;5034286;28;20545;-45
2022/03/17 05:36:58;;;;;;;69.30;47.80;;;6.90;99.90;;;;;;5034805;28;20475;-45
2022/03/17 05:39:25;;;;;;;72.10;50.83;;;7.40;99.90;;;;;;5034130;28;20411;-44
2022/03/17 05:41:51;;;;;;;66.63;50.63;;;6.90;99.90;;;;;;5034174;28;20457;-45
2022/03/17 05:44:18;;;;;;;71.07;49.97;;;7.20;99.90;;;;;;5034852;28;20434;-44
2022/03/17 05:46:46;;;;;;;67.40;47.53;;;7.30;99.90;;;;;;5035119;28;20442;-45
2022/03/17 05:49:13;;;;;;;74.00;51.20;;;6.90;99.90;;;;;;5034089;28;20913;-45
2022/03/17 05:51:40;;;;;;;74.17;51.13;;;7.00;99.90;;;;;;5033680;28;20862;-45
2022/03/17 05:54:07;;;;;;;76.83;52.53;;;7.20;99.90;;;;;;5033213;28;20405;-45
2022/03/17 05:56:34;;;;;;;70.87;50.20;;;6.90;99.90;;;;;;5033396;28;20412;-45
2022/03/17 05:59:01;;;;;;;74.90;49.40;;;7.00;99.90;;;;;;5032892;28;20441;-45
2022/03/17 06:01:28;;;;;;;77.23;51.97;;;7.30;99.90;;;;;;5033026;28;20540;-45
2022/03/17 06:03:57;;;;;;;73.70;53.73;;;6.60;99.90;;;;;;5033099;28;20484;-45
2022/03/17 06:06:23;;;;;;;74.63;53.03;;;6.90;99.90;;;;;;5033063;28;20438;-45
2022/03/17 06:08:50;;;;;;;69.87;52.27;;;7.00;99.90;;;;;;5032505;28;20815;-45
2022/03/17 06:11:16;;;;;;;76.03;52.67;;;7.00;99.90;;;;;;5032967;28;20471;-45
2022/03/17 06:13:44;;;;;;;70.97;51.37;;;7.10;99.90;;;;;;5032566;28;20497;-46
2022/03/17 06:16:11;;;;;;;83.17;54.53;;;7.10;99.90;;;;;;5033496;28;20871;-44
2022/03/17 06:18:38;;;;;;;78.23;52.30;;;7.40;99.90;;;;;;5033110;28;20965;-45
2022/03/17 06:21:06;;;;;;;75.67;53.70;;;7.30;99.90;;;;;;5032872;28;20961;-45
2022/03/17 06:23:33;;;;;;;70.93;52.20;;;6.90;99.90;;;;;;5032505;28;20835;-45
2022/03/17 06:26:00;;;;;;;79.20;54.40;;;7.20;99.90;;;;;;5032764;28;20950;-45
2022/03/17 06:28:26;;;;;;;77.07;53.57;;;7.00;99.90;;;;;;5032682;28;20434;-45
2022/03/17 06:30:54;;;;;;;69.93;52.03;;;7.10;99.90;;;;;;5032863;28;20448;-45
2022/03/17 06:33:21;;;;;;;84.20;56.03;;;6.80;99.90;;;;;;5033045;28;20832;-45
2022/03/17 06:35:47;;;;;;;78.47;53.90;;;7.20;99.90;;;;;;5032372;28;20638;-44
2022/03/17 06:38:15;;;;;;;72.20;51.90;;;7.40;99.90;;;;;;5032721;28;20430;-45
2022/03/17 06:40:42;;;;;;;80.20;55.50;;;7.90;99.90;;;;;;5032856;28;20444;-46
2022/03/17 06:43:09;;;;;;;84.20;56.40;;;7.40;99.90;;;;;;5033352;28;20496;-44
2022/03/17 06:45:36;;;;;;;85.30;57.40;;;7.30;99.90;;;;;;5032264;28;20898;-45
2022/03/17 06:48:02;;;;;;;77.93;55.00;;;7.80;99.90;;;;;;5032384;28;20441;-45
2022/03/17 06:50:30;;;;;;;72.87;53.30;;;7.60;99.90;;;;;;5032581;28;20440;-46
2022/03/17 06:52:56;;;;;;;74.97;55.43;;;7.40;99.90;;;;;;5032686;28;20457;-46
2022/03/17 06:55:25;;;;;;;78.57;56.07;;;7.40;99.90;;;;;;5032017;28;20527;-47
2022/03/17 06:57:51;;;;;;;83.53;53.67;;;7.60;99.90;;;;;;5031655;28;20442;-46
2022/03/17 07:00:19;;;;;;;76.77;54.83;;;7.40;99.90;;;;;;5031739;28;20439;-44
2022/03/17 07:02:46;;;;;;;73.60;55.10;;;7.60;99.90;;;;;;5031872;28;20456;-45
2022/03/17 07:05:14;;;;;;;83.50;57.03;;;8.00;99.90;;;;;;5032166;28;20925;-45
2022/03/17 07:07:42;;;;;;;84.30;56.17;;;7.70;99.90;;;;;;5031871;28;20433;-45
2022/03/17 07:10:11;;;;;;;84.10;55.87;;;7.80;99.90;;;;;;5013710;28;20478;-45
2022/03/17 07:12:41;;;;;;;74.80;53.70;;;8.00;99.90;;;;;;5031934;28;20535;-44
2022/03/17 07:15:09;;;;;;;77.30;57.80;;;7.70;99.90;;;;;;5032025;28;20630;-45
2022/03/17 07:17:39;;;;;;;77.77;55.50;;;8.00;99.90;;;;;;5031736;28;20447;-45
2022/03/17 07:20:07;;;;;;;75.57;55.80;;;8.60;99.90;;;;;;5031627;28;20500;-45
2022/03/17 07:22:34;;;;;;;77.50;54.43;;;8.30;99.90;;;;;;5031492;28;20454;-45
2022/03/17 07:25:00;;;;;;;76.90;57.30;;;7.90;99.90;;;;;;5032017;28;20774;-44
2022/03/17 07:27:27;;;;;;;77.87;57.13;;;7.80;99.90;;;;;;5038226;28;20436;-46
2022/03/17 07:29:55;;;;;;;75.63;57.70;;;7.90;99.90;;;;;;5037793;28;20437;-53
2022/03/17 07:32:24;;;;;;;76.73;55.33;;;8.30;99.90;;;;;;5037720;28;20463;-45
2022/03/17 07:34:51;;;;;;;77.23;57.87;;;8.30;99.90;;;;;;5038532;28;20935;-45
2022/03/17 07:37:18;;;;;;;79.27;58.80;;;8.20;99.90;;;;;;5038270;28;20447;-45
2022/03/17 07:39:46;;;;;;;79.93;55.70;;;8.80;99.90;;;;;;5037878;28;20856;-44
2022/03/17 07:42:13;;;;;;;80.77;55.00;;;8.30;99.90;;;;;;5037956;28;20442;-45
2022/03/17 07:45:13;;;;;;;78.30;56.07;;;8.30;99.90;;;;;;5037294;28;20959;-46
2022/03/17 07:47:58;;;;;;;82.57;60.27;;;7.90;99.90;;;;;;5038698;28;20481;-45
2022/03/17 07:50:25;;;;;;;80.83;57.47;;;8.40;99.90;;;;;;5037890;28;20434;-44
2022/03/17 07:52:51;;;;;;;85.43;56.60;;;8.60;99.90;;;;;;5038011;28;20618;-45
2022/03/17 07:55:18;;;;;;;76.70;56.33;;;8.50;99.90;;;;;;5037918;28;20469;-45
2022/03/17 07:57:45;;;;;;;84.07;58.27;;;8.60;99.90;;;;;;5037643;28;20443;-45
2022/03/17 08:00:14;;;;;;;81.03;56.40;;;8.40;99.90;;;;;;5037518;28;20435;-45
2022/03/17 08:02:42;;;;;;;75.60;54.47;;;8.60;99.90;;;;;;5038086;28;20463;-45
2022/03/17 08:05:10;;;;;;;77.97;57.77;;;8.90;99.90;;;;;;5038297;28;20442;-45
2022/03/17 08:07:37;;;;;;;81.60;57.67;;;8.70;99.90;;;;;;5038385;28;20454;-45
2022/03/17 08:10:04;;;;;;;78.40;57.93;;;8.90;99.90;;;;;;5037730;28;20435;-45
2022/03/17 08:12:31;;;;;;;80.13;59.33;;;9.20;99.90;;;;;;5037786;28;20467;-45
2022/03/17 08:14:58;;;;;;;83.10;58.10;;;9.30;99.90;;;;;;5038376;28;20679;-44
2022/03/17 08:17:26;;;;;;;74.77;56.23;;;8.70;99.90;;;;;;5038536;28;20525;-45
2022/03/17 08:19:53;;;;;;;81.80;56.50;;;9.40;99.90;;;;;;5037776;28;20439;-45
2022/03/17 08:22:20;;;;;;;76.40;55.87;;;9.10;99.90;;;;;;5038168;28;20491;-44
2022/03/17 08:24:48;;;;;;;86.23;60.60;;;9.00;99.90;;;;;;5038516;28;20457;-44
2022/03/17 08:27:15;;;;;;;79.60;58.27;;;9.10;99.90;;;;;;5038106;28;20439;-44
2022/03/17 08:29:42;;;;;;;78.57;59.20;;;9.20;99.90;;;;;;5020181;28;20551;-44
2022/03/17 08:32:09;;;;;;;77.60;58.30;;;9.40;99.90;;;;;;5038375;28;20447;-44
2022/03/17 08:34:37;;;;;;;81.57;58.63;;;9.40;99.90;;;;;;5037746;28;20435;-45
2022/03/17 08:37:04;;;;;;;83.03;58.80;;;9.40;99.90;;;;;;5038379;28;20426;-45
2022/03/17 08:39:31;;;;;;;77.30;58.13;;;9.20;99.90;;;;;;5035649;28;20446;-46
2022/03/17 08:41:57;;;;;;;77.07;55.80;;;9.30;99.90;;;;;;5035418;28;20455;-45
2022/03/17 08:44:24;;;;;;;91.23;60.97;;;9.00;99.90;;;;;;5037359;28;20999;-45
2022/03/17 08:49:35;;;;;;;81.10;59.00;;;9.00;99.90;;;;;;5036392;28;20446;-44
2022/03/17 08:52:07;;;;;;;77.73;55.20;;;9.80;99.90;;;;;;5035080;28;20474;-43
2022/03/17 08:54:34;;;;;;;81.00;58.33;;;10.00;99.90;;;;;;5034840;28;20937;-46
2022/03/17 08:57:03;;;;;;;81.63;60.47;;;9.90;99.90;;;;;;5035738;28;20435;-46
2022/03/17 08:59:31;;;;;;;82.00;57.20;;;10.30;99.90;;;;;;5036545;28;20913;-45
2022/03/17 09:01:58;;;;;;;81.07;57.43;;;10.30;99.90;;;;;;5035706;28;21078;-45
2022/03/17 09:04:25;;;;;;;75.10;55.63;;;9.90;99.90;;;;;;5037066;28;20490;-44
2022/03/17 09:06:52;;;;;;;68.90;52.60;;;9.90;99.90;;;;;;5036982;28;20435;-44
2022/03/17 09:09:20;;;;;;;74.10;55.40;;;10.30;99.90;;;;;;5036479;28;20514;-42
2022/03/17 09:11:47;;;;;;;73.30;56.57;;;10.10;99.90;;;;;;5034611;28;20434;-44
2022/03/17 09:14:14;;;;;;;66.87;52.30;;;10.10;99.90;;;;;;5034044;28;20436;-45
2022/03/17 09:16:41;;;;;;;74.27;54.77;;;10.40;99.90;;;;;;5034252;28;20979;-44
2022/03/17 09:19:08;;;;;;;77.47;57.03;;;10.00;99.90;;;;;;5033594;28;20520;-45
2022/03/17 09:21:36;;;;;;;78.50;55.27;;;10.30;99.90;;;;;;5034416;28;20432;-44
2022/03/17 09:24:03;;;;;;;72.37;55.10;;;9.90;99.90;;;;;;5034088;28;21010;-45
2022/03/17 09:26:31;;;;;;;72.67;54.43;;;10.30;99.90;;;;;;5034425;28;20430;-45
2022/03/17 09:28:58;;;;;;;71.57;55.23;;;10.40;99.90;;;;;;5015574;28;20429;-45
2022/03/17 09:31:25;;;;;;;66.17;54.83;;;9.60;99.90;;;;;;5045101;28;20865;-44
2022/03/17 09:33:52;;;;;;;74.23;56.33;;;10.20;99.90;;;;;;5051762;28;20474;-44
2022/03/17 09:36:19;;;;;;;72.23;53.20;;;10.40;99.90;;;;;;5053303;28;20438;-44
2022/03/17 09:39:39;;;;;;;64.73;51.60;;;10.30;99.90;;;;;;5053069;28;20940;-46
2022/03/17 09:41:36;;;;;;;71.67;53.80;;;10.90;99.90;;;;;;5053048;28;20441;-46
2022/03/17 09:44:03;;;;;;;68.13;53.63;;;10.50;99.90;;;;;;5053416;28;20497;-46
2022/03/17 09:46:31;;;;;;;73.70;53.83;;;10.50;99.90;;;;;;5053142;28;20438;-45
2022/03/17 09:48:58;;;;;;;74.63;54.27;;;10.60;99.90;;;;;;5052879;28;20450;-46
2022/03/17 09:51:26;;;;;;;73.67;56.30;;;10.30;99.90;;;;;;5053356;28;20550;-46
2022/03/17 09:53:54;;;;;;;73.93;55.97;;;10.70;99.90;;;;;;5052938;28;20430;-46
2022/03/17 09:56:23;;;;;;;66.90;52.60;;;11.00;99.90;;;;;;5053099;28;20538;-46
2022/03/17 09:58:51;;;;;;;78.87;54.93;;;10.90;99.90;;;;;;5053041;28;20530;-46
2022/03/17 10:01:19;;;;;;;67.40;52.03;;;11.00;99.90;;;;;;5053503;28;20431;-45
2022/03/17 10:03:47;;;;;;;64.60;51.40;;;10.70;99.90;;;;;;5053389;28;20479;-46
2022/03/17 10:06:14;;;;;;;71.13;50.70;;;10.80;99.90;;;;;;5053960;28;20445;-46
2022/03/17 10:08:42;;;;;;;65.60;52.20;;;10.90;99.90;;;;;;5052791;28;20847;-47
2022/03/17 10:11:09;;;;;;;68.03;53.73;;;10.90;99.90;;;;;;5053328;28;20427;-45
2022/03/17 10:13:44;;;;;;;72.13;53.70;;;11.00;99.90;;;;;;5053036;28;20470;-45
2022/03/17 10:16:17;;;;;;;66.60;53.53;;;11.40;99.90;;;;;;5053977;28;20467;-47
2022/03/17 10:18:45;;;;;;;67.80;53.47;;;11.20;99.90;;;;;;5052827;28;20463;-45
2022/03/17 10:21:16;;;;;;;66.07;52.10;;;11.50;99.90;;;;;;5053927;28;20895;-45
2022/03/17 10:23:48;;;;;;;66.40;52.97;;;10.60;99.40;;;;;;5053001;28;20817;-44
2022/03/17 10:26:38;;;;;;;63.70;50.93;;;10.50;99.30;;;;;;5052873;28;20535;-44
2022/03/17 10:29:06;;;;;;;62.43;48.63;;;11.40;99.50;;;;;;5052608;28;20447;-44
2022/03/17 10:31:50;;;;;;;65.63;50.03;;;11.40;99.10;;;;;;5052669;28;20443;-44
2022/03/17 10:34:17;;;;;;;66.63;50.00;;;11.30;98.70;;;;;;5052446;28;20440;-46
2022/03/17 10:36:46;;;;;;;63.93;51.77;;;11.90;98.90;;;;;;5052188;28;20837;-45
2022/03/17 10:39:13;;;;;;;66.83;51.90;;;11.90;98.70;;;;;;5052146;28;20456;-46
2022/03/17 10:41:41;;;;;;;61.87;48.73;;;11.90;98.50;;;;;;5052131;28;20661;-46
2022/03/17 10:44:11;;;;;;;59.50;47.47;;;11.60;98.10;;;;;;5052581;28;20539;-45
2022/03/17 10:46:39;;;;;;;64.30;48.40;;;11.70;98.30;;;;;;5052970;28;20481;-45
2022/03/17 10:49:09;;;;;;;59.43;48.77;;;12.00;98.00;;;;;;5051830;28;20437;-47
2022/03/17 10:51:37;;;;;;;63.53;49.93;;;11.80;97.50;;;;;;5052136;28;20447;-45
2022/03/17 10:54:05;;;;;;;67.40;50.33;;;11.80;97.60;;;;;;5052445;28;20441;-45
2022/03/17 10:56:32;;;;;;;63.33;48.30;;;11.90;97.20;;;;;;5052583;28;20869;-45
2022/03/17 10:59:00;;;;;;;60.43;48.63;;;12.00;97.10;;;;;;5052031;28;20449;-44
2022/03/17 11:01:36;;;;;;;63.83;49.93;;;12.00;96.80;;;;;;5051956;28;20478;-45
2022/03/17 11:04:05;;;;;;;58.90;47.47;;;12.30;96.70;;;;;;5052641;28;20481;-46
2022/03/17 11:06:32;;;;;;;61.73;51.20;;;12.40;97.00;;;;;;5053176;28;20863;-45
2022/03/17 11:09:00;;;;;;;63.40;48.97;;;11.80;96.20;;;;;;5043960;28;20472;-45
2022/03/17 11:11:28;;;;;;;58.60;48.60;;;12.50;96.40;;;;;;5054624;28;20516;-45
2022/03/17 11:13:56;;;;;;;71.63;52.43;;;12.50;96.50;;;;;;5052688;28;20463;-45
2022/03/17 11:16:25;;;;;;;62.83;49.10;;;12.40;96.20;;;;;;5051980;28;20447;-45
2022/03/17 11:18:54;;;;;;;59.27;48.37;;;12.60;96.10;;;;;;5051738;28;20491;-45
2022/03/17 11:21:28;;;;;;;59.13;47.40;;;12.20;95.80;;;;;;5051925;28;20854;-45
2022/03/17 11:23:59;;;;;;;57.30;47.50;;;12.40;95.40;;;;;;5052102;28;20475;-45
2022/03/17 11:26:31;;;;;;;59.53;48.37;;;12.60;95.50;;;;;;5051357;28;20439;-45
2022/03/17 11:29:03;;;;;;;61.47;47.37;;;12.30;94.90;;;;;;5050785;28;20471;-46
2022/03/17 11:31:30;;;;;;;68.90;47.50;;;12.30;94.60;;;;;;5051179;28;20945;-46
2022/03/17 11:33:59;;;;;;;58.40;45.23;;;12.80;94.60;;;;;;5051483;28;20448;-46
2022/03/17 11:36:27;;;;;;;56.30;46.27;;;12.40;94.60;;;;;;5050884;28;20506;-46
2022/03/17 11:39:13;;;;;;;57.23;47.27;;;12.70;94.50;;;;;;5050495;28;20449;-46
2022/03/17 11:41:42;;;;;;;57.43;45.40;;;12.40;94.10;;;;;;5050944;28;20523;-46
2022/03/17 11:44:08;;;;;;;55.07;45.03;;;12.80;94.20;;;;;;5050782;28;20476;-46
2022/03/17 11:46:44;;;;;;;58.00;45.03;;;12.60;93.90;;;;;;5050754;28;20906;-46
2022/03/17 11:49:19;;;;;;;55.27;44.90;;;12.80;93.70;;;;;;5051012;28;20529;-46
2022/03/17 11:51:57;;;;;;;54.50;44.50;;;13.10;93.80;;;;;;5050991;28;20427;-45
2022/03/17 11:54:24;;;;;;;61.00;43.70;;;12.70;93.30;;;;;;5050691;28;21040;-46
2022/03/17 11:56:54;;;;;;;54.77;44.60;;;13.00;93.50;;;;;;5042798;28;20533;-45
2022/03/17 11:59:23;;;;;;;55.20;42.63;;;12.70;93.30;;;;;;5049454;28;20444;-46
2022/03/17 12:01:50;;;;;;;56.83;43.13;;;12.70;93.20;;;;;;5050695;28;20489;-46
2022/03/17 12:04:24;;;;;;;58.57;42.13;;;12.70;93.00;;;;;;5050830;28;20486;-45
2022/03/17 12:07:06;;;;;;;57.60;45.30;;;13.10;92.50;;;;;;5051301;28;20507;-45
2022/03/17 12:09:35;;;;;;;50.50;42.23;;;12.90;92.40;;;;;;5035031;28;20446;-45
2022/03/17 12:12:02;;;;;;;49.30;40.33;;;12.70;92.10;;;;;;5031307;28;20506;-45
2022/03/17 12:14:29;;;;;;;53.13;42.53;;;13.00;91.90;;;;;;5035454;28;20433;-45
2022/03/17 12:16:58;;;;;;;56.60;41.80;;;13.00;91.70;;;;;;5035618;28;20846;-45
2022/03/17 12:19:33;;;;;;;58.23;41.97;;;13.10;91.90;;;;;;5035356;28;20437;-45
2022/03/17 12:22:21;;;;;;;49.60;40.30;;;13.20;91.90;;;;;;5035197;28;20456;-45
2022/03/17 12:24:50;;;;;;;46.60;40.50;;;13.20;91.10;;;;;;5034471;28;20510;-45
2022/03/17 12:27:19;;;;;;;54.47;42.37;;;13.60;91.80;;;;;;5035033;28;20928;-45
2022/03/17 12:29:48;;;;;;;48.43;38.50;;;13.20;91.30;;;;;;5034679;28;20474;-45
2022/03/17 12:32:19;;;;;;;49.63;40.07;;;13.10;91.10;;;;;;5034417;28;20463;-45
2022/03/17 12:34:48;;;;;;;49.80;42.53;;;13.30;90.90;;;;;;5051129;28;20451;-45
2022/03/17 12:37:15;;;;;;;51.50;40.90;;;13.30;90.70;;;;;;5054785;28;20795;-45
2022/03/17 12:39:48;;;;;;;50.53;40.73;;;13.40;90.40;;;;;;5053797;28;20450;-45
2022/03/17 12:42:18;;;;;;;49.23;40.00;;;13.40;90.40;;;;;;5054268;28;20651;-45
2022/03/17 12:44:51;;;;;;;50.87;40.80;;;13.50;90.70;;;;;;5054335;28;20552;-45
2022/03/17 12:47:18;;;;;;;55.40;41.27;;;13.40;90.30;;;;;;5054426;28;20448;-44
2022/03/17 12:49:45;;;;;;;52.17;41.70;;;13.40;90.40;;;;;;5053826;28;20849;-46
2022/03/17 12:52:13;;;;;;;57.10;40.63;;;13.10;89.90;;;;;;5053197;28;20476;-44
2022/03/17 12:54:40;;;;;;;52.03;42.40;;;13.40;90.00;;;;;;5054324;28;20902;-45
2022/03/17 12:57:08;;;;;;;48.33;40.30;;;13.40;90.10;;;;;;5054005;28;20437;-46